Time;durP1;ratioP1;P1;durP2;ratioP2;P2;SDS_P1;SDS_P2;PMS_P1;PMS_P2;Temp;Humidity;BMP_temperature;BMP_pressure;BME280_temperature;BME280_humidity;BME280_pressure;Samples;Min_cycle;Max_cycle;Signal;HPM_P1;HPM_P2
2021/08/16 13:44:28;;;;;;;9.87;6.73;;;;;;;;;;4968076;28;20551;-78
2021/08/16 13:46:55;;;;;;;9.53;8.47;;;;;;;;;;4968512;28;20445;-78
2021/08/16 13:49:22;;;;;;;14.53;8.47;;;;;;;;;;4971517;28;20448;-81
2021/08/16 13:51:50;;;;;;;11.10;7.50;;;;;;;;;;4971957;28;20467;-77
2021/08/16 13:54:17;;;;;;;10.00;7.87;;;;;;;;;;4967564;28;20448;-77
2021/08/16 13:56:46;;;;;;;11.57;7.30;;;;;;;;;;4970807;28;20426;-77
2021/08/16 13:59:13;;;;;;;11.03;8.40;;;;;;;;;;4974053;28;20448;-75
2021/08/16 14:01:41;;;;;;;10.60;7.67;;;;;;;;;;4975430;28;20468;-75
2021/08/16 14:04:09;;;;;;;10.07;8.57;;;;;;;;;;4961941;28;20419;-76
2021/08/16 14:06:36;;;;;;;11.37;7.53;;;;;;;;;;4967596;28;20877;-76
2021/08/16 14:09:03;;;;;;;14.13;9.40;;;;;;;;;;4975316;28;21061;-77
2021/08/16 14:11:30;;;;;;;12.10;8.50;;;;;;;;;;4975230;28;20438;-76
2021/08/16 14:13:58;;;;;;;11.60;9.07;;;;;;;;;;4975567;28;20484;-76
2021/08/16 14:16:25;;;;;;;14.40;9.30;;;;;;;;;;4975342;28;20464;-77
2021/08/16 14:18:54;;;;;;;15.17;8.87;;;;;;;;;;4977543;28;20429;-77
2021/08/16 14:21:21;;;;;;;17.17;11.37;;;;;;;;;;4977525;28;20467;-76
2021/08/16 14:23:48;;;;;;;15.83;12.30;;;;;;;;;;4977544;28;20448;-78
2021/08/16 14:26:15;;;;;;;15.47;12.50;;;;;;;;;;4961689;28;20762;-76
2021/08/16 14:28:43;;;;;;;15.43;12.93;;;;;;;;;;4965946;28;20441;-77
2021/08/16 14:31:11;;;;;;;16.57;13.30;;;;;;;;;;4974799;28;20439;-74
2021/08/16 14:33:39;;;;;;;15.33;12.50;;;;;;;;;;4974878;28;20459;-75
2021/08/16 14:36:07;;;;;;;19.00;12.63;;;;;;;;;;4975321;28;20437;-75
2021/08/16 14:38:34;;;;;;;17.00;13.00;;;;;;;;;;4975346;28;20449;-75
2021/08/16 14:41:01;;;;;;;18.73;13.47;;;;;;;;;;4976957;28;20442;-73
2021/08/16 14:43:29;;;;;;;18.73;12.37;;;;;;;;;;4976739;28;20476;-75
2021/08/16 14:45:56;;;;;;;14.30;12.67;;;;;;;;;;4976845;28;20423;-75
2021/08/16 14:48:24;;;;;;;17.60;14.20;;;;;;;;;;4962814;28;20445;-77
2021/08/16 14:50:52;;;;;;;16.60;12.77;;;;;;;;;;4959002;28;20476;-77
2021/08/16 14:53:20;;;;;;;19.10;13.20;;;;;;;;;;4953113;28;20474;-78
2021/08/16 14:55:47;;;;;;;14.57;11.07;;;;;;;;;;4951875;28;20540;-75
2021/08/16 14:58:15;;;;;;;16.83;13.03;;;;;;;;;;4960857;28;20542;-74
2021/08/16 15:00:42;;;;;;;17.40;11.67;;;;;;;;;;4971855;28;20487;-74
2021/08/16 15:03:10;;;;;;;13.73;10.60;;;;;;;;;;4972964;28;20438;-74
2021/08/16 15:05:37;;;;;;;10.03;7.53;;;;;;;;;;4972123;28;20512;-74
2021/08/16 15:08:05;;;;;;;8.97;6.87;;;;;;;;;;4964178;28;20524;-75
2021/08/16 15:10:33;;;;;;;10.07;6.97;;;;;;;;;;4956608;28;20833;-76
2021/08/16 15:13:01;;;;;;;11.70;7.33;;;;;;;;;;4958959;28;20964;-74
2021/08/16 15:15:28;;;;;;;11.83;6.10;;;;;;;;;;4969327;28;20431;-75
2021/08/16 15:17:56;;;;;;;8.37;6.27;;;;;;;;;;4970815;28;20475;-75
2021/08/16 15:20:23;;;;;;;11.20;6.33;;;;;;;;;;4970556;28;20470;-76
2021/08/16 15:22:51;;;;;;;7.70;5.77;;;;;;;;;;4970599;28;20523;-75
2021/08/16 15:25:18;;;;;;;11.57;6.87;;;;;;;;;;4970904;28;20506;-77
2021/08/16 15:27:48;;;;;;;7.03;5.67;;;;;;;;;;4962168;28;20453;-72
2021/08/16 15:30:18;;;;;;;9.40;6.40;;;;;;;;;;4972152;28;20475;-74
2021/08/16 15:32:45;;;;;;;11.97;5.03;;;;;;;;;;4943871;28;20499;-73
2021/08/16 15:35:12;;;;;;;5.67;4.97;;;;;;;;;;4956489;28;20802;-76
2021/08/16 15:37:40;;;;;;;8.73;4.97;;;;;;;;;;4951386;28;20431;-76
2021/08/16 15:40:08;;;;;;;8.37;5.47;;;;;;;;;;4950958;28;20504;-78
2021/08/16 15:42:35;;;;;;;7.17;4.97;;;;;;;;;;4951218;28;20484;-76
2021/08/16 15:45:04;;;;;;;7.30;5.07;;;;;;;;;;4957254;28;20460;-77
2021/08/16 15:47:32;;;;;;;5.03;4.53;;;;;;;;;;4967611;28;20441;-77
2021/08/16 15:50:00;;;;;;;7.50;5.00;;;;;;;;;;4958805;28;20998;-75
2021/08/16 15:52:28;;;;;;;8.63;4.60;;;;;;;;;;4952839;28;20441;-76
2021/08/16 15:54:56;;;;;;;5.60;4.80;;;;;;;;;;4944671;28;20441;-76
2021/08/16 15:57:23;;;;;;;4.73;3.90;;;;;;;;;;4955898;28;20433;-76
2021/08/16 15:59:50;;;;;;;6.63;4.50;;;;;;;;;;4950197;28;20569;-77
2021/08/16 16:02:19;;;;;;;7.20;5.00;;;;;;;;;;4950673;28;20553;-77
2021/08/16 16:04:46;;;;;;;9.07;4.90;;;;;;;;;;4951610;28;20445;-79
2021/08/16 16:07:14;;;;;;;6.20;4.40;;;;;;;;;;4972686;28;20457;-79
2021/08/16 16:09:41;;;;;;;9.73;4.77;;;;;;;;;;4956282;28;20441;-76
2021/08/16 16:12:08;;;;;;;7.73;5.43;;;;;;;;;;4973191;28;20445;-75
2021/08/16 16:14:36;;;;;;;8.53;4.60;;;;;;;;;;4962109;28;20891;-75
2021/08/16 16:17:03;;;;;;;7.20;5.10;;;;;;;;;;4959560;28;20444;-75
2021/08/16 16:19:31;;;;;;;6.73;5.17;;;;;;;;;;4953107;28;20446;-75
2021/08/16 16:21:59;;;;;;;8.63;4.73;;;;;;;;;;4955877;28;20499;-76
2021/08/16 16:24:26;;;;;;;9.40;5.37;;;;;;;;;;4964985;28;20484;-75
2021/08/16 16:26:53;;;;;;;8.07;4.70;;;;;;;;;;4965355;28;20499;-75
2021/08/16 16:29:20;;;;;;;11.43;6.27;;;;;;;;;;4955851;28;20848;-75
2021/08/16 16:31:48;;;;;;;10.70;5.80;;;;;;;;;;4953978;28;20460;-75
2021/08/16 16:34:15;;;;;;;10.57;6.40;;;;;;;;;;4965005;28;21001;-74
2021/08/16 16:36:44;;;;;;;12.60;6.77;;;;;;;;;;4964279;28;21019;-75
2021/08/16 16:39:11;;;;;;;10.17;6.97;;;;;;;;;;4964940;28;20475;-75
2021/08/16 16:41:39;;;;;;;11.80;6.33;;;;;;;;;;4959008;28;20998;-75
2021/08/16 16:44:06;;;;;;;9.40;6.07;;;;;;;;;;4952365;28;20478;-74
2021/08/16 16:46:33;;;;;;;8.70;6.00;;;;;;;;;;4957615;28;20437;-74
2021/08/16 16:49:03;;;;;;;7.90;5.63;;;;;;;;;;4968882;28;20524;-74
2021/08/16 16:51:30;;;;;;;7.53;5.50;;;;;;;;;;4972225;28;20465;-73
2021/08/16 16:53:59;;;;;;;8.43;5.93;;;;;;;;;;4972843;28;20492;-74
2021/08/16 16:56:26;;;;;;;7.90;5.83;;;;;;;;;;4972180;28;20958;-74
2021/08/16 16:58:53;;;;;;;10.80;5.40;;;;;;;;;;4971949;28;20452;-74
2021/08/16 17:01:20;;;;;;;9.97;5.40;;;;;;;;;;4955512;28;20469;-75
2021/08/16 17:03:48;;;;;;;8.30;5.57;;;;;;;;;;4955567;28;20445;-75
2021/08/16 17:06:15;;;;;;;9.50;4.87;;;;;;;;;;4958004;28;20923;-78
2021/08/16 17:08:42;;;;;;;10.17;4.13;;;;;;;;;;4958040;28;20504;-74
2021/08/16 17:11:11;;;;;;;8.60;4.30;;;;;;;;;;4951317;28;20458;-74
2021/08/16 17:13:40;;;;;;;7.77;4.43;;;;;;;;;;4952061;28;20481;-75
2021/08/16 17:16:08;;;;;;;7.97;4.33;;;;;;;;;;4952384;29;20835;-75
2021/08/16 17:18:35;;;;;;;7.40;4.30;;;;;;;;;;4937484;28;20488;-75
2021/08/16 17:21:02;;;;;;;6.40;4.23;;;;;;;;;;4954711;28;20474;-75
2021/08/16 17:23:29;;;;;;;10.23;4.17;;;;;;;;;;4959076;28;20456;-74
2021/08/16 17:25:56;;;;;;;9.37;3.87;;;;;;;;;;4968521;28;20474;-75
2021/08/16 17:28:25;;;;;;;8.47;4.37;;;;;;;;;;4949524;28;20463;-73
2021/08/16 17:30:52;;;;;;;8.43;4.17;;;;;;;;;;4948990;28;20472;-74
2021/08/16 17:33:19;;;;;;;10.13;4.10;;;;;;;;;;4955593;28;20493;-74
2021/08/16 17:35:46;;;;;;;7.03;4.10;;;;;;;;;;4956033;28;20439;-74
2021/08/16 17:38:14;;;;;;;9.07;4.93;;;;;;;;;;4971196;28;20558;-74
2021/08/16 17:40:41;;;;;;;7.77;4.70;;;;;;;;;;4972503;28;20471;-75
2021/08/16 17:43:08;;;;;;;14.30;4.90;;;;;;;;;;4971959;28;20482;-75
2021/08/16 17:45:37;;;;;;;7.43;4.47;;;;;;;;;;4956447;28;20467;-75
2021/08/16 17:48:05;;;;;;;7.87;4.90;;;;;;;;;;4974236;28;20458;-74
2021/08/16 17:50:32;;;;;;;7.90;4.07;;;;;;;;;;4961644;28;20467;-73
2021/08/16 17:52:59;;;;;;;9.10;4.67;;;;;;;;;;4963068;28;20812;-75
2021/08/16 17:55:26;;;;;;;8.97;3.93;;;;;;;;;;4966101;28;20480;-74
2021/08/16 17:57:53;;;;;;;11.60;4.87;;;;;;;;;;4957709;28;20934;-73
2021/08/16 18:00:20;;;;;;;10.67;5.53;;;;;;;;;;4968457;28;20996;-74
2021/08/16 18:02:49;;;;;;;7.77;4.20;;;;;;;;;;4971947;28;20459;-74
2021/08/16 18:05:16;;;;;;;8.77;3.90;;;;;;;;;;4972040;28;20451;-78
2021/08/16 18:07:44;;;;;;;8.13;4.83;;;;;;;;;;4960480;28;20848;-75
2021/08/16 18:10:11;;;;;;;10.63;4.60;;;;;;;;;;4955094;28;20498;-74
2021/08/16 18:12:39;;;;;;;8.37;5.10;;;;;;;;;;4972386;28;20450;-74
2021/08/16 18:15:06;;;;;;;10.37;4.93;;;;;;;;;;4970448;28;20984;-74
2021/08/16 18:17:34;;;;;;;7.27;4.10;;;;;;;;;;4964749;28;20441;-73
2021/08/16 18:20:02;;;;;;;9.40;4.67;;;;;;;;;;4958245;28;20456;-74
2021/08/16 18:22:29;;;;;;;8.47;5.27;;;;;;;;;;4966010;28;20802;-73
2021/08/16 18:24:59;;;;;;;12.07;6.67;;;;;;;;;;4971455;28;20451;-72
2021/08/16 18:27:26;;;;;;;8.53;5.27;;;;;;;;;;4971460;28;20475;-74
2021/08/16 18:29:53;;;;;;;11.00;5.70;;;;;;;;;;4971525;28;20551;-73
2021/08/16 18:32:20;;;;;;;9.60;6.17;;;;;;;;;;4973433;28;20465;-74
2021/08/16 18:34:47;;;;;;;13.37;6.13;;;;;;;;;;4960836;28;21017;-74
2021/08/16 18:37:16;;;;;;;8.57;5.10;;;;;;;;;;4955936;28;20479;-74
2021/08/16 18:39:44;;;;;;;11.30;7.00;;;;;;;;;;4955599;28;20459;-75
2021/08/16 18:42:17;;;;;;;9.87;5.67;;;;;;;;;;4956763;28;20474;-74
2021/08/16 18:44:44;;;;;;;8.40;5.10;;;;;;;;;;4967598;28;20474;-76
2021/08/16 18:47:11;;;;;;;8.80;5.67;;;;;;;;;;4960063;28;20838;-75
2021/08/16 18:49:39;;;;;;;7.87;5.53;;;;;;;;;;4970580;28;20591;-75
2021/08/16 18:52:06;;;;;;;10.47;5.60;;;;;;;;;;4953135;28;20448;-75
2021/08/16 18:54:35;;;;;;;11.67;5.50;;;;;;;;;;4952122;28;20491;-76
2021/08/16 18:57:02;;;;;;;12.67;6.17;;;;;;;;;;4960954;28;20793;-75
2021/08/16 18:59:29;;;;;;;10.40;5.83;;;;;;;;;;4968880;28;20449;-75
2021/08/16 19:01:57;;;;;;;8.90;6.47;;;;;;;;;;4974346;28;20466;-76
2021/08/16 19:04:24;;;;;;;9.50;6.07;;;;;;;;;;4955379;28;20945;-76
2021/08/16 19:06:52;;;;;;;10.00;5.80;;;;;;;;;;4954892;28;20559;-76
2021/08/16 19:09:19;;;;;;;11.73;5.87;;;;;;;;;;4971678;28;20466;-76
2021/08/16 19:11:47;;;;;;;8.33;5.93;;;;;;;;;;4976413;28;20467;-76
2021/08/16 19:14:14;;;;;;;7.13;5.03;;;;;;;;;;4976280;28;20486;-76
2021/08/16 19:16:42;;;;;;;7.03;5.17;;;;;;;;;;4974157;28;20455;-75
2021/08/16 19:19:09;;;;;;;8.60;5.27;;;;;;;;;;4960374;28;20527;-76
2021/08/16 19:21:36;;;;;;;10.13;5.27;;;;;;;;;;4956730;28;20988;-76
2021/08/16 19:24:03;;;;;;;8.40;5.27;;;;;;;;;;4954816;29;20794;-75
2021/08/16 19:26:31;;;;;;;8.30;4.67;;;;;;;;;;4954908;28;20449;-76
2021/08/16 19:28:59;;;;;;;9.20;5.43;;;;;;;;;;4954727;28;20447;-76
2021/08/16 19:31:27;;;;;;;11.93;5.90;;;;;;;;;;4971731;28;20565;-75
2021/08/16 19:33:54;;;;;;;17.83;6.70;;;;;;;;;;4975731;28;20577;-76
2021/08/16 19:36:22;;;;;;;10.00;5.57;;;;;;;;;;4975998;28;20445;-76
2021/08/16 19:38:50;;;;;;;6.73;4.47;;;;;;;;;;4973626;28;20458;-76
2021/08/16 19:41:17;;;;;;;9.30;5.30;;;;;;;;;;4960039;28;20456;-76
2021/08/16 19:43:44;;;;;;;10.93;5.90;;;;;;;;;;4968156;28;20465;-77
2021/08/16 19:46:13;;;;;;;8.73;5.07;;;;;;;;;;4973627;28;20456;-76
2021/08/16 19:48:40;;;;;;;9.70;5.17;;;;;;;;;;4973712;28;20950;-75
2021/08/16 19:51:08;;;;;;;11.60;5.53;;;;;;;;;;4973677;28;20823;-75
2021/08/16 19:53:35;;;;;;;10.10;6.20;;;;;;;;;;4958083;28;21004;-75
2021/08/16 19:56:03;;;;;;;10.63;5.50;;;;;;;;;;4959243;28;20488;-76
2021/08/16 19:58:30;;;;;;;9.00;5.30;;;;;;;;;;4968752;28;20438;-75
2021/08/16 20:00:57;;;;;;;8.10;5.20;;;;;;;;;;4973075;28;20461;-75
2021/08/16 20:03:25;;;;;;;7.60;5.00;;;;;;;;;;4973441;28;20926;-76
2021/08/16 20:05:53;;;;;;;9.37;5.47;;;;;;;;;;4973479;28;20450;-74
2021/08/16 20:08:20;;;;;;;6.93;4.67;;;;;;;;;;4974643;28;20462;-76
2021/08/16 20:10:47;;;;;;;8.73;4.90;;;;;;;;;;4975195;28;20466;-75
2021/08/16 20:13:14;;;;;;;9.40;4.70;;;;;;;;;;4975323;28;20452;-75
2021/08/16 20:15:41;;;;;;;8.50;5.00;;;;;;;;;;4971515;28;20485;-77
2021/08/16 20:18:09;;;;;;;7.50;5.73;;;;;;;;;;4959563;28;20445;-75
2021/08/16 20:20:38;;;;;;;7.50;5.17;;;;;;;;;;4968600;28;20454;-76
2021/08/16 20:23:05;;;;;;;13.20;5.43;;;;;;;;;;4973039;28;20446;-75
2021/08/16 20:25:33;;;;;;;8.40;5.33;;;;;;;;;;4973418;28;20442;-76
2021/08/16 20:28:00;;;;;;;9.17;5.53;;;;;;;;;;4972933;28;20447;-74
2021/08/16 20:30:27;;;;;;;12.27;5.70;;;;;;;;;;4974190;28;20473;-75
2021/08/16 20:32:54;;;;;;;9.57;5.77;;;;;;;;;;4975111;28;20523;-74
2021/08/16 20:35:21;;;;;;;12.50;5.87;;;;;;;;;;4975023;28;20486;-76
2021/08/16 20:37:50;;;;;;;9.70;5.93;;;;;;;;;;4971037;28;20438;-75
2021/08/16 20:40:17;;;;;;;9.07;5.93;;;;;;;;;;4959077;28;20478;-75
2021/08/16 20:42:44;;;;;;;8.30;5.30;;;;;;;;;;4968580;28;20467;-75
2021/08/16 20:45:12;;;;;;;9.77;5.80;;;;;;;;;;4972830;28;20453;-75
2021/08/16 20:47:39;;;;;;;8.53;5.30;;;;;;;;;;4972879;28;20450;-76
2021/08/16 20:50:06;;;;;;;6.33;4.13;;;;;;;;;;4972960;28;20467;-76
2021/08/16 20:52:33;;;;;;;7.50;5.33;;;;;;;;;;4973937;28;20474;-75
2021/08/16 20:55:02;;;;;;;8.50;5.30;;;;;;;;;;4974313;28;20481;-76
2021/08/16 20:57:29;;;;;;;13.47;5.53;;;;;;;;;;4973780;28;20445;-76
2021/08/16 20:59:57;;;;;;;7.50;5.03;;;;;;;;;;4958758;28;20459;-75
2021/08/16 21:02:24;;;;;;;6.60;4.60;;;;;;;;;;4956149;28;20441;-75
2021/08/16 21:04:51;;;;;;;9.17;5.37;;;;;;;;;;4936202;29;20446;-75
2021/08/16 21:07:18;;;;;;;6.70;5.27;;;;;;;;;;4953225;29;20443;-76
2021/08/16 21:09:46;;;;;;;9.50;5.80;;;;;;;;;;4953228;28;20442;-75
2021/08/16 21:12:15;;;;;;;9.00;5.50;;;;;;;;;;4967642;28;20798;-75
2021/08/16 21:14:42;;;;;;;9.10;5.40;;;;;;;;;;4960239;28;20483;-76
2021/08/16 21:17:09;;;;;;;6.67;4.73;;;;;;;;;;4978058;28;20447;-75
2021/08/16 21:19:36;;;;;;;8.03;5.83;;;;;;;;;;4976280;28;20453;-74
2021/08/16 21:22:04;;;;;;;8.60;5.23;;;;;;;;;;4962660;28;20434;-76
2021/08/16 21:24:32;;;;;;;9.67;5.77;;;;;;;;;;4966601;28;20451;-75
2021/08/16 21:26:59;;;;;;;9.13;4.83;;;;;;;;;;4959216;28;20444;-75
2021/08/16 21:29:28;;;;;;;14.60;5.30;;;;;;;;;;4958939;28;20471;-74
2021/08/16 21:31:55;;;;;;;12.07;5.30;;;;;;;;;;4976239;28;20473;-75
2021/08/16 21:34:22;;;;;;;8.87;4.60;;;;;;;;;;4976790;28;20553;-75
2021/08/16 21:36:51;;;;;;;7.63;4.80;;;;;;;;;;4978286;28;20468;-75
2021/08/16 21:39:18;;;;;;;6.60;4.77;;;;;;;;;;4978355;28;20531;-75
2021/08/16 21:41:45;;;;;;;9.57;4.97;;;;;;;;;;4978126;28;20461;-75
2021/08/16 21:44:13;;;;;;;8.97;5.00;;;;;;;;;;4962888;28;20466;-75
2021/08/16 21:46:41;;;;;;;7.20;4.80;;;;;;;;;;4966726;28;20455;-75
2021/08/16 21:49:08;;;;;;;7.33;4.77;;;;;;;;;;4975785;28;20455;-75
2021/08/16 21:51:35;;;;;;;6.80;4.30;;;;;;;;;;4975964;28;20495;-73
2021/08/16 21:54:03;;;;;;;7.47;4.77;;;;;;;;;;4975978;28;20448;-75
2021/08/16 21:56:30;;;;;;;6.70;4.60;;;;;;;;;;4976855;28;20484;-74
2021/08/16 21:58:57;;;;;;;7.73;4.73;;;;;;;;;;4978015;28;20647;-75
2021/08/16 22:01:24;;;;;;;9.77;4.60;;;;;;;;;;4977788;28;20831;-76
2021/08/16 22:03:54;;;;;;;6.20;4.50;;;;;;;;;;4977656;28;20451;-76
2021/08/16 22:06:21;;;;;;;9.20;5.00;;;;;;;;;;4962141;28;20497;-76
2021/08/16 22:08:48;;;;;;;9.43;4.90;;;;;;;;;;4959797;28;20777;-74
2021/08/16 22:11:16;;;;;;;10.30;4.90;;;;;;;;;;4956132;28;20966;-76
2021/08/16 22:13:44;;;;;;;9.90;4.60;;;;;;;;;;4956022;29;20450;-74
2021/08/16 22:16:11;;;;;;;9.80;4.73;;;;;;;;;;4956061;28;20886;-74
2021/08/16 22:18:38;;;;;;;13.37;5.70;;;;;;;;;;4968182;28;20968;-75
2021/08/16 22:21:07;;;;;;;7.33;4.40;;;;;;;;;;4977330;28;20472;-75
2021/08/16 22:23:34;;;;;;;8.20;4.50;;;;;;;;;;4976327;28;20449;-74
2021/08/16 22:26:01;;;;;;;11.07;5.47;;;;;;;;;;4977179;28;20448;-76
2021/08/16 22:28:30;;;;;;;7.03;4.57;;;;;;;;;;4961401;28;20437;-74
2021/08/16 22:30:57;;;;;;;7.53;4.70;;;;;;;;;;4941860;29;20458;-76
2021/08/16 22:33:24;;;;;;;5.90;4.50;;;;;;;;;;4955826;29;20449;-75
2021/08/16 22:35:52;;;;;;;10.60;4.97;;;;;;;;;;4955737;28;20826;-74
2021/08/16 22:38:20;;;;;;;14.10;5.27;;;;;;;;;;4955812;29;20807;-74
2021/08/16 22:40:47;;;;;;;8.50;4.87;;;;;;;;;;4968809;28;20464;-74
2021/08/16 22:43:14;;;;;;;6.43;4.47;;;;;;;;;;4976946;28;20834;-75
2021/08/16 22:45:42;;;;;;;10.23;5.30;;;;;;;;;;4977129;28;20441;-75
2021/08/16 22:48:09;;;;;;;6.97;4.67;;;;;;;;;;4976355;28;20437;-75
2021/08/16 22:50:37;;;;;;;7.10;4.60;;;;;;;;;;4961290;28;20466;-75
2021/08/16 22:53:04;;;;;;;13.50;5.40;;;;;;;;;;4967066;28;20445;-75
2021/08/16 22:55:33;;;;;;;10.13;5.00;;;;;;;;;;4974497;28;20485;-75
2021/08/16 22:58:00;;;;;;;7.47;4.33;;;;;;;;;;4974265;28;20444;-73
2021/08/16 23:00:27;;;;;;;9.03;5.17;;;;;;;;;;4974776;28;20556;-76
2021/08/16 23:02:54;;;;;;;10.60;5.50;;;;;;;;;;4975774;28;20475;-75
2021/08/16 23:05:21;;;;;;;9.47;5.07;;;;;;;;;;4976675;28;20452;-75
2021/08/16 23:07:48;;;;;;;9.63;5.40;;;;;;;;;;4976587;28;20451;-75
2021/08/16 23:10:16;;;;;;;9.53;5.70;;;;;;;;;;4975323;28;20465;-74
2021/08/16 23:12:44;;;;;;;12.03;5.43;;;;;;;;;;4960669;28;20445;-75
2021/08/16 23:15:12;;;;;;;12.20;5.50;;;;;;;;;;4967115;28;20503;-75
2021/08/16 23:17:39;;;;;;;12.80;6.77;;;;;;;;;;4957177;28;20798;-75
2021/08/16 23:20:07;;;;;;;10.90;5.87;;;;;;;;;;4973967;28;20464;-76
2021/08/16 23:22:34;;;;;;;11.93;6.40;;;;;;;;;;4957169;28;20437;-74
2021/08/16 23:25:01;;;;;;;12.73;6.90;;;;;;;;;;4975291;28;20445;-76
2021/08/16 23:27:29;;;;;;;12.77;5.43;;;;;;;;;;4976249;28;20472;-76
2021/08/16 23:29:57;;;;;;;11.83;6.30;;;;;;;;;;4976040;28;21005;-75
2021/08/16 23:32:25;;;;;;;16.00;6.80;;;;;;;;;;4974579;28;20449;-76
2021/08/16 23:34:52;;;;;;;8.90;5.90;;;;;;;;;;4959919;28;20426;-74
2021/08/16 23:37:20;;;;;;;12.00;6.10;;;;;;;;;;4957010;28;20449;-75
2021/08/16 23:39:48;;;;;;;10.70;6.90;;;;;;;;;;4954303;28;20538;-74
2021/08/16 23:42:15;;;;;;;7.93;5.47;;;;;;;;;;4954172;28;20469;-76
2021/08/16 23:44:43;;;;;;;10.87;6.07;;;;;;;;;;4954704;28;20468;-74
2021/08/16 23:47:12;;;;;;;11.43;6.70;;;;;;;;;;4969886;28;20476;-74
2021/08/16 23:49:39;;;;;;;17.43;8.40;;;;;;;;;;4975748;28;20439;-76
2021/08/16 23:52:06;;;;;;;10.10;6.23;;;;;;;;;;4975678;28;20453;-74
2021/08/16 23:54:33;;;;;;;13.03;7.33;;;;;;;;;;4956401;28;20449;-75
2021/08/16 23:57:01;;;;;;;15.63;8.10;;;;;;;;;;4959800;28;20493;-74
2021/08/16 23:59:28;;;;;;;13.40;7.90;;;;;;;;;;4956633;28;21114;-76
